createdAt,value
2022-09-21T00:00:13.286Z,102705.09
2022-09-21T00:02:39.750Z,102699.28
2022-09-21T00:05:06.614Z,102706.84
2022-09-21T00:07:33.046Z,102728.59
2022-09-21T00:09:59.486Z,102724.44
2022-09-21T00:12:25.950Z,102709.34
2022-09-21T00:14:52.411Z,102675.13
2022-09-21T00:17:18.866Z,102699.19
2022-09-21T00:19:45.341Z,102714.16
2022-09-21T00:22:11.782Z,102707.88
2022-09-21T00:24:38.232Z,102727.38
2022-09-21T00:27:04.841Z,102721.59
2022-09-21T00:29:31.288Z,102703.06
2022-09-21T00:31:58.369Z,102685.06
2022-09-21T00:34:24.918Z,102722.13
2022-09-21T00:36:51.538Z,102708.41
2022-09-21T00:39:17.953Z,102696.69
2022-09-21T00:41:44.756Z,102687.72
2022-09-21T00:44:23.283Z,102736.72
2022-09-21T00:46:51.847Z,102729.97
2022-09-21T00:49:18.465Z,102741.28
2022-09-21T00:51:45.433Z,102714.25
2022-09-21T00:54:15.183Z,102725.06
2022-09-21T00:56:42.606Z,102729.13
2022-09-21T00:59:09.467Z,102721.22
2022-09-21T01:01:38.286Z,102743.59
2022-09-21T01:04:07.056Z,102735.34
2022-09-21T01:06:34.755Z,102729.66
2022-09-21T01:09:01.426Z,102729.03
2022-09-21T01:11:32.300Z,102725.84
2022-09-21T01:14:07.944Z,102738.34
2022-09-21T01:16:56.023Z,102744.56
2022-09-21T01:19:31.467Z,102744.00
2022-09-21T01:22:14.420Z,102742.81
2022-09-21T01:25:24.178Z,102743.34
2022-09-21T01:28:12.732Z,102743.94
2022-09-21T01:30:43.662Z,102731.53
2022-09-21T01:33:25.798Z,102722.91
2022-09-21T01:36:02.085Z,102735.50
2022-09-21T01:38:32.274Z,102728.91
2022-09-21T01:41:02.587Z,102737.03
2022-09-21T01:43:42.298Z,102724.59
2022-09-21T01:46:13.537Z,102734.28
2022-09-21T01:48:42.387Z,102726.25
2022-09-21T01:51:10.533Z,102735.34
2022-09-21T01:53:44.432Z,102742.59
2022-09-21T01:56:43.682Z,102740.31
2022-09-21T01:59:30.414Z,102738.50
2022-09-21T02:02:09.841Z,102737.38
2022-09-21T02:04:36.486Z,102744.59
2022-09-21T02:07:02.876Z,102741.19
2022-09-21T02:09:29.612Z,102738.50
2022-09-21T02:11:55.972Z,102733.53
2022-09-21T02:14:24.511Z,102742.84
2022-09-21T02:17:09.230Z,102747.41
2022-09-21T02:19:54.275Z,102742.84
2022-09-21T02:22:37.930Z,102737.59
2022-09-21T02:25:10.616Z,102727.13
2022-09-21T02:27:51.387Z,102750.22
2022-09-21T02:30:21.590Z,102745.47
2022-09-21T02:33:06.324Z,102747.25
2022-09-21T02:35:37.435Z,102741.47
2022-09-21T02:38:27.587Z,102746.41
2022-09-21T02:40:58.260Z,102739.59
2022-09-21T02:43:30.250Z,102743.53
2022-09-21T02:46:05.320Z,102735.78
2022-09-21T02:48:35.932Z,102722.94
2022-09-21T02:51:10.328Z,102720.78
2022-09-21T02:53:38.555Z,102733.19
2022-09-21T02:56:07.264Z,102738.03
2022-09-21T02:58:37.892Z,102730.50
2022-09-21T03:01:08.709Z,102732.47
2022-09-21T03:03:35.398Z,102714.13
2022-09-21T03:06:02.089Z,102716.00
2022-09-21T03:08:29.119Z,102718.28
2022-09-21T03:10:55.512Z,102739.16
2022-09-21T03:13:21.912Z,102728.72
2022-09-21T03:15:48.700Z,102735.97
2022-09-21T03:18:15.088Z,102727.06
2022-09-21T03:20:47.772Z,102737.13
2022-09-21T03:23:14.497Z,102741.25
2022-09-21T03:25:44.048Z,102732.34
2022-09-21T03:28:10.779Z,102731.31
2022-09-21T03:30:37.139Z,102731.31
2022-09-21T03:33:05.632Z,102739.78
2022-09-21T03:35:35.266Z,102737.19
2022-09-21T03:38:02.286Z,102723.53
2022-09-21T03:40:28.741Z,102725.31
2022-09-21T03:42:55.493Z,102747.34
2022-09-21T03:45:22.110Z,102744.31
2022-09-21T03:47:48.575Z,102746.78
2022-09-21T03:50:15.300Z,102726.56
2022-09-21T03:52:41.680Z,102749.63
2022-09-21T03:55:09.143Z,102745.38
2022-09-21T03:57:36.392Z,102732.84
2022-09-21T04:00:06.387Z,102756.22
2022-09-21T04:02:32.798Z,102752.69
2022-09-21T04:04:59.604Z,102750.22
2022-09-21T04:07:26.226Z,102742.97
2022-09-21T04:09:53.520Z,102751.97
2022-09-21T04:12:22.664Z,102746.91
2022-09-21T04:14:49.697Z,102739.53
2022-09-21T04:17:16.083Z,102746.16
2022-09-21T04:19:42.950Z,102719.69
2022-09-21T04:22:09.361Z,102727.38
2022-09-21T04:24:35.807Z,102742.47
2022-09-21T04:27:02.156Z,102735.34
2022-09-21T04:29:28.653Z,102747.25
2022-09-21T04:31:55.000Z,102741.47
2022-09-21T04:34:21.347Z,102743.31
2022-09-21T04:36:48.013Z,102745.81
2022-09-21T04:39:14.391Z,102720.34
2022-09-21T04:41:42.120Z,102750.75
2022-09-21T04:44:08.486Z,102739.78
2022-09-21T04:46:34.880Z,102740.53
2022-09-21T04:49:01.260Z,102748.50
2022-09-21T04:51:27.812Z,102743.13
2022-09-21T04:53:54.239Z,102730.28
2022-09-21T04:56:20.597Z,102734.44
2022-09-21T04:58:47.016Z,102744.56
2022-09-21T05:01:13.520Z,102740.75
2022-09-21T05:03:39.936Z,102740.13
2022-09-21T05:06:07.723Z,102741.47
2022-09-21T05:08:52.643Z,102747.38
2022-09-21T05:11:19.296Z,102744.06
2022-09-21T05:13:46.079Z,102748.47
2022-09-21T05:16:12.432Z,102751.81
2022-09-21T05:18:38.928Z,102751.41
2022-09-21T05:21:06.204Z,102758.97
2022-09-21T05:23:32.661Z,102755.22
2022-09-21T05:25:59.671Z,102772.59
2022-09-21T05:28:27.066Z,102760.38
2022-09-21T05:31:18.681Z,102770.00
2022-09-21T05:34:05.440Z,102754.34
2022-09-21T05:37:05.627Z,102777.53
2022-09-21T05:39:32.235Z,102776.59
2022-09-21T05:41:58.953Z,102772.44
2022-09-21T05:44:25.618Z,102777.16
2022-09-21T05:47:04.380Z,102778.38
2022-09-21T05:49:49.715Z,102772.63
2022-09-21T05:52:25.027Z,102783.22
2022-09-21T05:54:57.180Z,102764.97
2022-09-21T05:57:31.116Z,102771.44
2022-09-21T06:00:18.940Z,102787.38
2022-09-21T06:03:07.780Z,102783.03
2022-09-21T06:05:34.144Z,102786.56
2022-09-21T06:08:00.536Z,102783.47
2022-09-21T06:10:29.535Z,102791.13
2022-09-21T06:12:55.885Z,102796.63
2022-09-21T06:15:22.324Z,102797.88
2022-09-21T06:17:48.673Z,102795.59
2022-09-21T06:20:15.122Z,102793.13
2022-09-21T06:22:41.487Z,102797.78
2022-09-21T06:25:07.991Z,102799.41
2022-09-21T06:27:34.343Z,102786.78
2022-09-21T06:30:00.716Z,102780.78
2022-09-21T06:32:27.124Z,102798.34
2022-09-21T06:34:53.960Z,102787.19
2022-09-21T06:37:20.666Z,102797.41
2022-09-21T06:39:47.032Z,102794.16
2022-09-21T06:42:13.400Z,102787.22
2022-09-21T06:44:39.770Z,102773.22
2022-09-21T06:47:06.175Z,102784.28
2022-09-21T06:49:32.580Z,102798.88
2022-09-21T06:51:58.951Z,102792.31
2022-09-21T06:54:25.606Z,102699.34
2022-09-21T06:56:52.001Z,102784.28
2022-09-21T06:59:18.364Z,102787.34
2022-09-21T07:01:44.780Z,102793.66
2022-09-21T07:04:11.240Z,102792.16
2022-09-21T07:06:37.683Z,102792.25
2022-09-21T07:11:50.742Z,102783.09
2022-09-21T07:14:19.159Z,102793.03
2022-09-21T07:16:45.923Z,102793.16
2022-09-21T07:19:12.344Z,102778.66
2022-09-21T07:21:38.927Z,102800.13
2022-09-21T07:24:09.502Z,102791.97
2022-09-21T07:26:37.703Z,102788.28
2022-09-21T07:29:04.061Z,102798.06
2022-09-21T07:31:30.511Z,102791.06
2022-09-21T07:34:00.261Z,102795.19
2022-09-21T07:36:26.698Z,102790.31
2022-09-21T07:38:53.906Z,102794.03
2022-09-21T07:41:20.687Z,102797.28
2022-09-21T07:43:47.127Z,102795.44
2022-09-21T07:46:14.807Z,102800.28
2022-09-21T07:48:41.737Z,102778.38
2022-09-21T07:51:11.022Z,102788.03
2022-09-21T07:53:38.467Z,102799.53
2022-09-21T07:56:07.617Z,102785.19
2022-09-21T07:58:56.720Z,102766.69
2022-09-21T08:01:24.457Z,102783.78
2022-09-21T08:03:52.110Z,102777.63
2022-09-21T08:06:19.340Z,102771.31
2022-09-21T08:08:47.902Z,102777.78
2022-09-21T08:11:15.545Z,102775.88
2022-09-21T08:13:42.105Z,102773.09
2022-09-21T08:16:08.950Z,102767.44
2022-09-21T08:18:39.730Z,102786.50
2022-09-21T08:21:07.925Z,102772.00
2022-09-21T08:23:34.281Z,102779.25
2022-09-21T08:26:02.249Z,102795.78
2022-09-21T08:28:30.238Z,102788.28
2022-09-21T08:31:05.125Z,102803.19
2022-09-21T08:33:32.127Z,102780.59
2022-09-21T08:35:59.636Z,102783.78
2022-09-21T08:38:26.482Z,102795.31
2022-09-21T08:40:53.383Z,102798.50
2022-09-21T08:43:35.817Z,102796.50
2022-09-21T08:46:10.464Z,102760.09
2022-09-21T08:48:40.921Z,102806.03
2022-09-21T08:51:15.848Z,102784.53
2022-09-21T08:53:46.892Z,102805.03
2022-09-21T08:56:14.437Z,102783.50
2022-09-21T08:58:41.237Z,102790.75
2022-09-21T09:01:36.884Z,102790.56
2022-09-21T09:04:33.572Z,102800.31
2022-09-21T09:07:18.706Z,102800.22
2022-09-21T09:10:00.275Z,102806.16
2022-09-21T09:12:43.047Z,102805.03
2022-09-21T09:15:27.943Z,102811.13
2022-09-21T09:18:00.327Z,102810.16
2022-09-21T09:20:38.244Z,102791.13
2022-09-21T09:23:21.762Z,102787.03
2022-09-21T09:25:51.851Z,102810.47
2022-09-21T09:28:34.760Z,102804.94
2022-09-21T09:31:05.492Z,102819.19
2022-09-21T09:33:38.008Z,102814.44
2022-09-21T09:36:11.465Z,102803.59
2022-09-21T09:38:57.377Z,102822.94
2022-09-21T09:41:26.809Z,102815.03
2022-09-21T09:44:05.339Z,102805.53
2022-09-21T09:47:06.131Z,102814.25
2022-09-21T09:50:00.359Z,102796.53
2022-09-21T09:52:27.638Z,102761.94
2022-09-21T09:54:54.653Z,102807.19
2022-09-21T09:57:28.217Z,102803.41
2022-09-21T09:59:56.832Z,102802.59
2022-09-21T10:02:25.564Z,102791.09
2022-09-21T10:05:05.656Z,102794.25
2022-09-21T10:07:42.900Z,102798.50
2022-09-21T10:10:21.603Z,102806.22
2022-09-21T10:12:48.669Z,102806.69
2022-09-21T10:15:16.821Z,102787.81
2022-09-21T10:17:45.804Z,102797.69
2022-09-21T10:20:20.184Z,102784.25
2022-09-21T10:22:53.675Z,102790.81
2022-09-21T10:25:20.336Z,102800.16
2022-09-21T10:27:49.002Z,102802.78
2022-09-21T10:30:30.493Z,102796.84
2022-09-21T10:32:58.404Z,102796.38
2022-09-21T10:35:25.982Z,102786.72
2022-09-21T10:38:23.134Z,102782.75
2022-09-21T10:40:50.179Z,102779.16
2022-09-21T10:43:35.897Z,102788.16
2022-09-21T10:46:04.279Z,102789.16
2022-09-21T10:48:30.664Z,102784.38
2022-09-21T10:50:57.087Z,102771.09
2022-09-21T10:53:29.045Z,102790.59
2022-09-21T10:56:15.697Z,102799.31
2022-09-21T10:59:21.640Z,102792.56
2022-09-21T11:01:50.729Z,102799.31
2022-09-21T11:04:34.686Z,102778.00
2022-09-21T11:07:07.832Z,102789.31
2022-09-21T11:09:42.044Z,102765.19
2022-09-21T11:12:35.798Z,102776.72
2022-09-21T11:15:12.346Z,102771.44
2022-09-21T11:17:41.656Z,102773.22
2022-09-21T11:20:27.715Z,102754.06
2022-09-21T11:23:11.645Z,102755.66
2022-09-21T11:25:44.163Z,102762.06
2022-09-21T11:28:16.155Z,102756.66
2022-09-21T11:30:52.487Z,102774.25
2022-09-21T11:33:43.822Z,102780.09
2022-09-21T11:37:11.955Z,102777.34
2022-09-21T11:39:54.664Z,102774.56
2022-09-21T11:42:42.271Z,102774.38
2022-09-21T11:45:33.487Z,102749.94
2022-09-21T11:48:21.089Z,102763.25
2022-09-21T11:50:56.557Z,102767.19
2022-09-21T11:54:03.280Z,102760.63
2022-09-21T11:56:32.165Z,102754.19
2022-09-21T11:59:26.879Z,102743.19
2022-09-21T12:02:28.524Z,102739.47
2022-09-21T12:05:07.164Z,102741.88
2022-09-21T12:07:58.271Z,102745.03
2022-09-21T12:11:05.211Z,102747.78
2022-09-21T12:13:50.473Z,102731.38
2022-09-21T12:16:41.722Z,102723.53
2022-09-21T12:19:33.763Z,102740.09
2022-09-21T12:22:06.530Z,102722.97
2022-09-21T12:24:37.419Z,102735.22
2022-09-21T12:27:13.991Z,102738.16
2022-09-21T12:29:48.130Z,102729.41
2022-09-21T12:32:29.688Z,102730.63
2022-09-21T12:34:58.800Z,102713.22
2022-09-21T12:37:40.633Z,102714.13
2022-09-21T12:40:09.847Z,102734.53
2022-09-21T12:42:50.032Z,102731.69
2022-09-21T12:45:33.239Z,102719.72
2022-09-21T12:48:07.907Z,102705.44
2022-09-21T12:50:43.530Z,102710.03
2022-09-21T12:53:17.063Z,102708.72
2022-09-21T12:55:55.763Z,102707.06
2022-09-21T12:58:22.127Z,102712.88
2022-09-21T13:01:06.795Z,102708.91
2022-09-21T13:03:37.918Z,102703.47
2022-09-21T13:06:12.276Z,102706.53
2022-09-21T13:08:42.093Z,102707.41
2022-09-21T13:11:09.284Z,102686.63
2022-09-21T13:13:51.188Z,102686.47
2022-09-21T13:16:30.151Z,102682.91
2022-09-21T13:19:05.736Z,102693.59
2022-09-21T13:21:32.699Z,102687.28
2022-09-21T13:24:01.306Z,102675.88
2022-09-21T13:26:43.172Z,102692.94
2022-09-21T13:29:18.950Z,102694.16
2022-09-21T13:32:01.877Z,102698.50
2022-09-21T13:34:36.635Z,102665.13
2022-09-21T13:37:13.862Z,102700.19
2022-09-21T13:40:02.146Z,102684.25
2022-09-21T13:42:37.468Z,102691.56
2022-09-21T13:45:18.312Z,102695.38
2022-09-21T13:47:50.673Z,102687.00
2022-09-21T13:50:21.420Z,102685.53
2022-09-21T13:52:52.164Z,102676.50
2022-09-21T13:55:30.860Z,102701.56
2022-09-21T13:57:59.596Z,102686.69
2022-09-21T14:00:33.676Z,102669.63
2022-09-21T14:03:04.331Z,102676.22
2022-09-21T14:05:45.961Z,102683.78
2022-09-21T14:08:15.652Z,102684.78
2022-09-21T14:11:02.562Z,102680.38
2022-09-21T14:13:39.248Z,102680.88
2022-09-21T14:16:39.769Z,102681.06
2022-09-21T14:19:21.113Z,102678.97
2022-09-21T14:22:09.554Z,102660.81
2022-09-21T14:24:51.059Z,102605.75
2022-09-21T14:27:33.381Z,102652.38
2022-09-21T14:30:07.955Z,102665.00
2022-09-21T14:32:47.384Z,102633.25
2022-09-21T14:38:23.819Z,102658.91
2022-09-21T14:40:52.933Z,102625.22
2022-09-21T14:43:27.808Z,102575.28
2022-09-21T14:46:04.355Z,102581.06
2022-09-21T14:48:54.957Z,102645.09
2022-09-21T14:51:44.526Z,102645.16
2022-09-21T14:54:14.445Z,102613.38
2022-09-21T14:56:43.938Z,102633.66
2022-09-21T14:59:35.992Z,102633.41
2022-09-21T15:02:21.070Z,102638.56
2022-09-21T15:05:23.677Z,102641.66
2022-09-21T15:08:14.917Z,102629.59
2022-09-21T15:10:58.070Z,102549.16
2022-09-21T15:13:32.490Z,102634.88
2022-09-21T15:16:35.182Z,102558.91
2022-09-21T15:19:27.237Z,102627.59
2022-09-21T15:22:22.365Z,102558.72
2022-09-21T15:25:02.879Z,102561.50
2022-09-21T15:27:33.165Z,102557.31
2022-09-21T15:30:07.184Z,102624.38
2022-09-21T15:32:44.402Z,102561.75
2022-09-21T15:35:28.647Z,102547.53
2022-09-21T15:37:57.285Z,102558.19
2022-09-21T15:40:28.338Z,102566.94
2022-09-21T15:43:25.680Z,102555.00
2022-09-21T15:46:07.553Z,102571.38
2022-09-21T15:48:40.503Z,102534.28
2022-09-21T15:51:14.785Z,102588.09
2022-09-21T15:53:53.268Z,102558.09
2022-09-21T15:56:25.726Z,102569.50
2022-09-21T15:59:19.535Z,102588.41
2022-09-21T16:01:57.089Z,102547.63
2022-09-21T16:04:31.938Z,102518.91
2022-09-21T16:07:06.585Z,102525.75
2022-09-21T16:09:43.754Z,102555.78
2022-09-21T16:12:27.922Z,102611.78
2022-09-21T16:15:18.286Z,102541.47
2022-09-21T16:18:03.421Z,102601.84
2022-09-21T16:20:48.398Z,102500.34
2022-09-21T16:23:26.732Z,102580.84
2022-09-21T16:26:02.877Z,102552.66
2022-09-21T16:28:37.826Z,102555.81
2022-09-21T16:31:39.787Z,102557.09
2022-09-21T16:34:23.575Z,102528.19
2022-09-21T16:36:51.967Z,102526.31
2022-09-21T16:39:19.472Z,102544.53
2022-09-21T16:41:53.347Z,102514.19
2022-09-21T16:44:35.056Z,102518.31
2022-09-21T16:47:04.818Z,102612.13
2022-09-21T16:49:35.095Z,102521.44
2022-09-21T16:52:04.123Z,102579.16
2022-09-21T16:54:43.240Z,102531.03
2022-09-21T16:57:13.181Z,102566.78
2022-09-21T16:59:39.638Z,102585.16
2022-09-21T17:02:08.845Z,102587.06
2022-09-21T17:04:35.887Z,102603.97
2022-09-21T17:07:05.568Z,102607.44
2022-09-21T17:09:40.403Z,102619.47
2022-09-21T17:12:09.000Z,102609.22
2022-09-21T17:14:36.829Z,102618.38
2022-09-21T17:17:13.402Z,102612.53
2022-09-21T17:19:41.962Z,102605.78
2022-09-21T17:22:12.595Z,102616.41
2022-09-21T17:24:50.406Z,102612.66
2022-09-21T17:27:20.893Z,102621.91
2022-09-21T17:29:49.087Z,102612.03
2022-09-21T17:32:20.068Z,102608.91
2022-09-21T17:34:49.941Z,102604.28
2022-09-21T17:37:16.221Z,102617.47
2022-09-21T17:39:44.905Z,102610.25
2022-09-21T17:42:21.684Z,102616.78
2022-09-21T17:44:55.138Z,102588.78
2022-09-21T17:47:25.300Z,102607.44
2022-09-21T17:49:51.886Z,102607.59
2022-09-21T17:52:39.543Z,102609.03
2022-09-21T17:55:08.385Z,102616.72
2022-09-21T17:57:45.472Z,102607.88
2022-09-21T18:00:18.351Z,102616.19
2022-09-21T18:02:45.091Z,102598.97
2022-09-21T18:05:24.453Z,102610.34
2022-09-21T18:07:51.389Z,102612.56
2022-09-21T18:10:22.609Z,102617.88
2022-09-21T18:13:01.116Z,102619.69
2022-09-21T18:15:42.723Z,102623.66
2022-09-21T18:18:31.642Z,102629.75
2022-09-21T18:21:03.489Z,102637.88
2022-09-21T18:23:41.309Z,102619.63
2022-09-21T18:26:13.213Z,102620.91
2022-09-21T18:28:40.679Z,102622.03
2022-09-21T18:31:09.842Z,102630.16
2022-09-21T18:33:57.462Z,102631.69
2022-09-21T18:36:31.713Z,102600.19
2022-09-21T18:38:58.244Z,102635.16
2022-09-21T18:41:32.252Z,102636.97
2022-09-21T18:44:08.880Z,102633.66
2022-09-21T18:46:50.940Z,102638.75
2022-09-21T18:49:35.949Z,102637.78
2022-09-21T18:52:09.283Z,102643.16
2022-09-21T18:54:35.818Z,102632.59
2022-09-21T18:57:08.323Z,102618.59
2022-09-21T18:59:35.824Z,102636.97
2022-09-21T19:02:09.697Z,102628.97
2022-09-21T19:04:36.313Z,102618.00
2022-09-21T19:07:16.676Z,102632.81
2022-09-21T19:10:21.472Z,102636.50
2022-09-21T19:13:13.131Z,102644.47
2022-09-21T19:16:01.202Z,102640.22
2022-09-21T19:18:36.751Z,102656.38
2022-09-21T19:21:32.574Z,102654.47
2022-09-21T19:24:06.497Z,102646.19
2022-09-21T19:26:42.497Z,102636.13
2022-09-21T19:29:29.131Z,102661.44
2022-09-21T19:31:55.528Z,102659.47
2022-09-21T19:34:22.347Z,102640.22
2022-09-21T19:36:48.941Z,102667.13
2022-09-21T19:39:16.133Z,102660.41
2022-09-21T19:41:48.219Z,102653.44
2022-09-21T19:44:50.024Z,102655.66
2022-09-21T19:47:29.444Z,102652.38
2022-09-21T19:50:03.394Z,102655.69
2022-09-21T19:52:32.505Z,102660.84
2022-09-21T19:55:17.974Z,102652.28
2022-09-21T19:58:03.467Z,102659.31
2022-09-21T20:00:31.942Z,102649.03
2022-09-21T20:03:05.588Z,102648.22
2022-09-21T20:05:41.043Z,102650.50
2022-09-21T20:08:10.430Z,102653.63
2022-09-21T20:10:52.221Z,102653.84
2022-09-21T20:13:20.684Z,102655.03
2022-09-21T20:15:54.027Z,102637.91
2022-09-21T20:18:37.533Z,102653.38
2022-09-21T20:21:04.669Z,102654.72
2022-09-21T20:23:32.136Z,102647.69
2022-09-21T20:26:04.015Z,102650.81
2022-09-21T20:28:31.087Z,102642.19
2022-09-21T20:30:57.542Z,102654.56
2022-09-21T20:33:24.628Z,102649.16
2022-09-21T20:35:52.854Z,102651.38
2022-09-21T20:38:19.224Z,102646.69
2022-09-21T20:40:45.928Z,102638.69
2022-09-21T20:43:14.072Z,102645.66
2022-09-21T20:45:40.845Z,102633.88
2022-09-21T20:48:14.116Z,102637.50
2022-09-21T20:50:42.236Z,102630.31
2022-09-21T20:53:09.272Z,102648.47
2022-09-21T20:55:35.857Z,102635.78
2022-09-21T20:58:05.333Z,102645.66
2022-09-21T21:00:31.840Z,102632.16
2022-09-21T21:03:01.512Z,102625.69
2022-09-21T21:05:29.095Z,102636.06
2022-09-21T21:07:56.287Z,102633.34
2022-09-21T21:10:23.187Z,102645.50
2022-09-21T21:12:50.021Z,102636.94
2022-09-21T21:15:16.473Z,102639.53
2022-09-21T21:17:42.863Z,102646.00
2022-09-21T21:20:10.015Z,102638.44
2022-09-21T21:22:36.416Z,102634.34
2022-09-21T21:25:03.170Z,102640.34
2022-09-21T21:27:29.534Z,102642.81
2022-09-21T21:29:56.271Z,102628.69
2022-09-21T21:32:25.123Z,102634.09
2022-09-21T21:34:52.532Z,102628.47
2022-09-21T21:37:20.862Z,102633.28
2022-09-21T21:39:47.800Z,102644.16
2022-09-21T21:42:14.766Z,102631.31
2022-09-21T21:44:41.314Z,102629.56
2022-09-21T21:47:27.811Z,102639.03
2022-09-21T21:49:54.404Z,102639.84
2022-09-21T21:52:21.128Z,102635.84
2022-09-21T21:54:47.526Z,102622.88
2022-09-21T21:57:14.871Z,102618.41
2022-09-21T21:59:43.059Z,102631.50
2022-09-21T22:02:10.298Z,102630.31
2022-09-21T22:04:36.754Z,102612.72
2022-09-21T22:07:03.465Z,102631.03
2022-09-21T22:09:29.895Z,102627.47
2022-09-21T22:11:58.189Z,102610.50
2022-09-21T22:14:24.574Z,102598.47
2022-09-21T22:16:51.355Z,102613.72
2022-09-21T22:19:17.939Z,102610.16
2022-09-21T22:21:48.216Z,102628.09
2022-09-21T22:24:16.843Z,102599.19
2022-09-21T22:26:45.087Z,102617.25
2022-09-21T22:29:13.367Z,102621.94
2022-09-21T22:31:42.605Z,102607.69
2022-09-21T22:34:09.819Z,102608.28
2022-09-21T22:36:37.647Z,102605.22
2022-09-21T22:39:05.917Z,102612.75
2022-09-21T22:41:35.388Z,102627.50
2022-09-21T22:44:01.988Z,102613.59
2022-09-21T22:46:29.276Z,102625.25
2022-09-21T22:48:55.725Z,102608.03
2022-09-21T22:51:22.578Z,102628.66
2022-09-21T22:53:49.859Z,102625.63
2022-09-21T22:56:18.818Z,102621.59
2022-09-21T22:58:47.471Z,102619.72
2022-09-21T23:01:21.154Z,102621.72
2022-09-21T23:03:49.098Z,102611.09
2022-09-21T23:06:18.300Z,102616.06
2022-09-21T23:08:51.481Z,102584.06
2022-09-21T23:11:21.712Z,102573.00
2022-09-21T23:13:48.991Z,102591.38
2022-09-21T23:16:16.343Z,102605.31
2022-09-21T23:18:43.703Z,102606.38
2022-09-21T23:21:16.427Z,102616.03
2022-09-21T23:23:43.417Z,102609.19
2022-09-21T23:26:12.590Z,102608.69
2022-09-21T23:28:39.919Z,102611.41
2022-09-21T23:31:09.336Z,102613.28
2022-09-21T23:33:38.248Z,102612.25
2022-09-21T23:36:06.365Z,102564.34
2022-09-21T23:38:33.055Z,102607.50
2022-09-21T23:41:03.765Z,102616.59
2022-09-21T23:43:30.198Z,102605.41
2022-09-21T23:45:56.904Z,102609.63
2022-09-21T23:48:23.293Z,102596.53
2022-09-21T23:50:49.654Z,102586.50
2022-09-21T23:53:16.026Z,102583.44
2022-09-21T23:55:42.744Z,102598.41
2022-09-21T23:58:09.119Z,102573.88
